sensor_id;sensor_type;location;lat;lon;timestamp;pressure;altitude;pressure_sealevel;temperature;humidity
48216;BME280;34005;48.844;10.098;2022-10-17T00:00:31;97249.63;;;16.89;66.45
48216;BME280;34005;48.844;10.098;2022-10-17T00:03:00;97256.31;;;16.85;66.48
48216;BME280;34005;48.844;10.098;2022-10-17T00:05:27;97255.09;;;16.81;66.55
48216;BME280;34005;48.844;10.098;2022-10-17T00:07:55;97264.41;;;16.77;66.49
48216;BME280;34005;48.844;10.098;2022-10-17T00:10:23;97261.19;;;16.75;66.64
48216;BME280;34005;48.844;10.098;2022-10-17T00:12:51;97265.84;;;16.73;66.39
48216;BME280;34005;48.844;10.098;2022-10-17T00:15:19;97265.22;;;16.71;66.76
48216;BME280;34005;48.844;10.098;2022-10-17T00:17:47;97268.06;;;16.69;66.42
48216;BME280;34005;48.844;10.098;2022-10-17T00:20:16;97268.25;;;16.68;66.63
48216;BME280;34005;48.844;10.098;2022-10-17T00:22:44;97255.31;;;16.66;66.52
48216;BME280;34005;48.844;10.098;2022-10-17T00:25:12;97265.00;;;16.66;66.46
48216;BME280;34005;48.844;10.098;2022-10-17T00:27:40;97268.69;;;16.65;66.47
48216;BME280;34005;48.844;10.098;2022-10-17T00:30:10;97271.31;;;16.65;66.26
48216;BME280;34005;48.844;10.098;2022-10-17T00:32:38;97266.84;;;16.65;66.17
48216;BME280;34005;48.844;10.098;2022-10-17T00:35:07;97266.47;;;16.62;66.36
48216;BME280;34005;48.844;10.098;2022-10-17T00:37:36;97267.66;;;16.59;66.33
48216;BME280;34005;48.844;10.098;2022-10-17T00:40:05;97263.59;;;16.57;66.29
48216;BME280;34005;48.844;10.098;2022-10-17T00:42:33;97269.28;;;16.54;66.49
48216;BME280;34005;48.844;10.098;2022-10-17T00:45:20;97279.22;;;16.52;66.57
48216;BME280;34005;48.844;10.098;2022-10-17T00:47:52;97275.97;;;16.50;66.45
48216;BME280;34005;48.844;10.098;2022-10-17T00:50:20;97270.50;;;16.51;66.27
48216;BME280;34005;48.844;10.098;2022-10-17T00:52:50;97272.53;;;16.49;66.03
48216;BME280;34005;48.844;10.098;2022-10-17T00:55:20;97277.81;;;16.49;66.06
48216;BME280;34005;48.844;10.098;2022-10-17T00:57:49;97272.31;;;16.51;66.05
48216;BME280;34005;48.844;10.098;2022-10-17T01:00:17;97275.97;;;16.50;65.90
48216;BME280;34005;48.844;10.098;2022-10-17T01:02:46;97283.88;;;16.50;66.04
48216;BME280;34005;48.844;10.098;2022-10-17T01:05:15;97283.06;;;16.49;66.17
48216;BME280;34005;48.844;10.098;2022-10-17T01:07:43;97285.69;;;16.49;65.94
48216;BME280;34005;48.844;10.098;2022-10-17T01:10:14;97286.31;;;16.51;66.12
48216;BME280;34005;48.844;10.098;2022-10-17T01:12:54;97294.59;;;16.55;67.51
48216;BME280;34005;48.844;10.098;2022-10-17T01:15:33;97290.97;;;16.56;66.52
48216;BME280;34005;48.844;10.098;2022-10-17T01:18:12;97289.94;;;16.57;65.83
48216;BME280;34005;48.844;10.098;2022-10-17T01:24:14;97282.66;;;16.52;65.78
48216;BME280;34005;48.844;10.098;2022-10-17T01:26:58;97285.28;;;16.45;65.93
48216;BME280;34005;48.844;10.098;2022-10-17T01:29:46;97274.94;;;16.37;66.20
48216;BME280;34005;48.844;10.098;2022-10-17T01:32:21;97275.78;;;16.31;66.48
48216;BME280;34005;48.844;10.098;2022-10-17T01:34:56;97278.19;;;16.26;66.56
48216;BME280;34005;48.844;10.098;2022-10-17T01:37:30;97272.72;;;16.21;66.97
48216;BME280;34005;48.844;10.098;2022-10-17T01:40:03;97273.50;;;16.15;67.06
48216;BME280;34005;48.844;10.098;2022-10-17T01:42:36;97275.72;;;16.11;67.10
48216;BME280;34005;48.844;10.098;2022-10-17T01:45:09;97272.69;;;16.08;67.12
48216;BME280;34005;48.844;10.098;2022-10-17T01:47:41;97270.44;;;16.04;67.04
48216;BME280;34005;48.844;10.098;2022-10-17T01:50:12;97272.47;;;16.02;67.13
48216;BME280;34005;48.844;10.098;2022-10-17T01:52:45;97263.97;;;16.00;67.19
48216;BME280;34005;48.844;10.098;2022-10-17T01:55:17;97264.19;;;15.99;67.24
48216;BME280;34005;48.844;10.098;2022-10-17T01:57:48;97266.00;;;15.98;67.34
48216;BME280;34005;48.844;10.098;2022-10-17T02:00:20;97258.31;;;15.97;67.31
48216;BME280;34005;48.844;10.098;2022-10-17T02:02:52;97262.75;;;15.96;67.52
48216;BME280;34005;48.844;10.098;2022-10-17T02:05:25;97262.97;;;15.95;67.43
48216;BME280;34005;48.844;10.098;2022-10-17T02:07:54;97263.16;;;15.93;67.37
48216;BME280;34005;48.844;10.098;2022-10-17T02:10:31;97259.91;;;15.91;67.57
48216;BME280;34005;48.844;10.098;2022-10-17T02:13:07;97261.91;;;15.89;67.68
48216;BME280;34005;48.844;10.098;2022-10-17T02:15:49;97260.31;;;15.88;67.74
48216;BME280;34005;48.844;10.098;2022-10-17T02:18:42;97264.97;;;15.86;67.72
48216;BME280;34005;48.844;10.098;2022-10-17T02:21:15;97257.44;;;15.83;67.77
48216;BME280;34005;48.844;10.098;2022-10-17T02:23:50;97266.78;;;15.79;67.97
48216;BME280;34005;48.844;10.098;2022-10-17T02:26:24;97256.84;;;15.74;68.21
48216;BME280;34005;48.844;10.098;2022-10-17T02:29:01;97253.59;;;15.72;68.40
48216;BME280;34005;48.844;10.098;2022-10-17T02:31:35;97254.13;;;15.68;68.51
48216;BME280;34005;48.844;10.098;2022-10-17T02:34:08;97259.81;;;15.64;68.83
48216;BME280;34005;48.844;10.098;2022-10-17T02:36:41;97259.19;;;15.62;68.62
48216;BME280;34005;48.844;10.098;2022-10-17T02:39:11;97259.38;;;15.61;68.96
48216;BME280;34005;48.844;10.098;2022-10-17T02:41:40;97269.09;;;15.60;68.65
48216;BME280;34005;48.844;10.098;2022-10-17T02:44:09;97267.50;;;15.59;68.91
48216;BME280;34005;48.844;10.098;2022-10-17T02:46:38;97251.28;;;15.56;68.79
48216;BME280;34005;48.844;10.098;2022-10-17T02:52:36;97266.63;;;15.52;69.22
48216;BME280;34005;48.844;10.098;2022-10-17T02:55:11;97267.84;;;15.50;69.11
48216;BME280;34005;48.844;10.098;2022-10-17T02:57:43;97262.81;;;15.48;69.09
48216;BME280;34005;48.844;10.098;2022-10-17T03:00:13;97269.66;;;15.49;70.92
48216;BME280;34005;48.844;10.098;2022-10-17T03:02:45;97270.28;;;15.51;69.79
48216;BME280;34005;48.844;10.098;2022-10-17T03:05:18;97266.22;;;15.49;69.52
48216;BME280;34005;48.844;10.098;2022-10-17T03:07:48;97264.59;;;15.48;69.97
48216;BME280;34005;48.844;10.098;2022-10-17T03:10:16;97273.53;;;15.53;72.14
48216;BME280;34005;48.844;10.098;2022-10-17T03:12:44;97279.59;;;15.54;71.73
48216;BME280;34005;48.844;10.098;2022-10-17T03:15:12;97267.03;;;15.49;69.99
48216;BME280;34005;48.844;10.098;2022-10-17T03:17:40;97273.88;;;15.43;69.66
48216;BME280;34005;48.844;10.098;2022-10-17T03:20:09;97276.69;;;15.35;69.67
48216;BME280;34005;48.844;10.098;2022-10-17T03:22:37;97282.91;;;15.28;69.54
48216;BME280;34005;48.844;10.098;2022-10-17T03:25:07;97280.44;;;15.19;70.02
48216;BME280;34005;48.844;10.098;2022-10-17T03:27:35;97280.22;;;15.14;69.86
48216;BME280;34005;48.844;10.098;2022-10-17T03:30:03;97283.44;;;15.10;70.07
48216;BME280;34005;48.844;10.098;2022-10-17T03:32:32;97283.00;;;15.06;70.04
48216;BME280;34005;48.844;10.098;2022-10-17T03:35:00;97289.63;;;15.02;70.17
48216;BME280;34005;48.844;10.098;2022-10-17T03:37:28;97286.59;;;14.98;70.32
48216;BME280;34005;48.844;10.098;2022-10-17T03:39:59;97288.78;;;14.95;70.40
48216;BME280;34005;48.844;10.098;2022-10-17T03:42:28;97284.13;;;14.90;70.42
48216;BME280;34005;48.844;10.098;2022-10-17T03:44:56;97284.69;;;14.86;70.51
48216;BME280;34005;48.844;10.098;2022-10-17T03:47:24;97291.94;;;14.83;70.73
48216;BME280;34005;48.844;10.098;2022-10-17T03:49:52;97293.16;;;14.81;70.81
48216;BME280;34005;48.844;10.098;2022-10-17T03:52:20;97290.09;;;14.77;70.72
48216;BME280;34005;48.844;10.098;2022-10-17T03:54:48;97293.72;;;14.76;70.90
48216;BME280;34005;48.844;10.098;2022-10-17T03:57:17;97286.66;;;14.77;70.86
48216;BME280;34005;48.844;10.098;2022-10-17T03:59:49;97297.56;;;14.74;70.97
48216;BME280;34005;48.844;10.098;2022-10-17T04:02:16;97298.53;;;14.73;70.76
48216;BME280;34005;48.844;10.098;2022-10-17T04:04:44;97297.91;;;14.71;70.93
48216;BME280;34005;48.844;10.098;2022-10-17T04:07:13;97296.47;;;14.68;70.94
48216;BME280;34005;48.844;10.098;2022-10-17T04:09:41;97294.88;;;14.67;71.04
48216;BME280;34005;48.844;10.098;2022-10-17T04:12:09;97300.13;;;14.67;71.19
48216;BME280;34005;48.844;10.098;2022-10-17T04:14:37;97298.50;;;14.66;70.95
48216;BME280;34005;48.844;10.098;2022-10-17T04:17:06;97299.69;;;14.63;71.27
48216;BME280;34005;48.844;10.098;2022-10-17T04:19:34;97305.13;;;14.62;70.89
48216;BME280;34005;48.844;10.098;2022-10-17T04:22:02;97306.13;;;14.61;71.05
48216;BME280;34005;48.844;10.098;2022-10-17T04:24:34;97301.69;;;14.61;71.22
48216;BME280;34005;48.844;10.098;2022-10-17T04:27:02;97305.28;;;14.60;71.25
48216;BME280;34005;48.844;10.098;2022-10-17T04:29:30;97313.38;;;14.59;71.24
48216;BME280;34005;48.844;10.098;2022-10-17T04:31:58;97308.13;;;14.59;71.44
48216;BME280;34005;48.844;10.098;2022-10-17T04:34:27;97313.38;;;14.59;71.48
48216;BME280;34005;48.844;10.098;2022-10-17T04:36:55;97313.56;;;14.57;71.54
48216;BME280;34005;48.844;10.098;2022-10-17T04:39:23;97309.34;;;14.56;71.42
48216;BME280;34005;48.844;10.098;2022-10-17T04:41:51;97318.00;;;14.57;71.66
48216;BME280;34005;48.844;10.098;2022-10-17T04:44:25;97327.50;;;14.58;71.67
48216;BME280;34005;48.844;10.098;2022-10-17T04:46:56;97325.88;;;14.57;71.40
48216;BME280;34005;48.844;10.098;2022-10-17T04:49:24;97320.25;;;14.60;71.68
48216;BME280;34005;48.844;10.098;2022-10-17T04:51:53;97323.13;;;14.65;72.93
48216;BME280;34005;48.844;10.098;2022-10-17T04:54:24;97319.09;;;14.69;72.98
48216;BME280;34005;48.844;10.098;2022-10-17T04:56:52;97319.94;;;14.70;72.74
48216;BME280;34005;48.844;10.098;2022-10-17T04:59:20;97323.38;;;14.70;73.58
48216;BME280;34005;48.844;10.098;2022-10-17T05:01:48;97325.38;;;14.68;72.83
48216;BME280;34005;48.844;10.098;2022-10-17T05:04:16;97326.97;;;14.69;73.80
48216;BME280;34005;48.844;10.098;2022-10-17T05:06:54;97327.25;;;14.74;74.78
48216;BME280;34005;48.844;10.098;2022-10-17T05:09:27;97329.06;;;14.74;73.52
48216;BME280;34005;48.844;10.098;2022-10-17T05:11:55;97332.84;;;14.71;73.68
48216;BME280;34005;48.844;10.098;2022-10-17T05:14:23;97325.94;;;14.63;71.96
48216;BME280;34005;48.844;10.098;2022-10-17T05:16:53;97323.09;;;14.58;72.21
48216;BME280;34005;48.844;10.098;2022-10-17T05:30:09;97336.47;;;14.49;71.65
48216;BME280;34005;48.844;10.098;2022-10-17T05:32:37;97340.31;;;14.46;71.72
48216;BME280;34005;48.844;10.098;2022-10-17T05:35:05;97345.09;;;14.42;71.61
48216;BME280;34005;48.844;10.098;2022-10-17T05:37:33;97350.75;;;14.39;71.68
48216;BME280;34005;48.844;10.098;2022-10-17T05:40:02;97354.72;;;14.35;71.86
48216;BME280;34005;48.844;10.098;2022-10-17T05:42:30;97358.38;;;14.34;72.03
48216;BME280;34005;48.844;10.098;2022-10-17T05:44:59;97356.72;;;14.33;71.94
48216;BME280;34005;48.844;10.098;2022-10-17T05:47:28;97360.78;;;14.36;72.83
48216;BME280;34005;48.844;10.098;2022-10-17T05:50:00;97353.38;;;14.39;73.65
48216;BME280;34005;48.844;10.098;2022-10-17T05:57:20;97354.22;;;14.47;73.48
48216;BME280;34005;48.844;10.098;2022-10-17T06:01:08;97361.34;;;14.53;75.12
48216;BME280;34005;48.844;10.098;2022-10-17T06:40:31;97385.66;;;15.68;72.33
48216;BME280;34005;48.844;10.098;2022-10-17T06:42:59;97389.81;;;15.83;71.58
48216;BME280;34005;48.844;10.098;2022-10-17T06:45:27;97395.13;;;15.97;71.16
48216;BME280;34005;48.844;10.098;2022-10-17T06:47:55;97400.88;;;16.14;70.51
48216;BME280;34005;48.844;10.098;2022-10-17T06:50:27;97399.69;;;16.23;70.17
48216;BME280;34005;48.844;10.098;2022-10-17T06:53:33;97403.16;;;16.37;70.00
48216;BME280;34005;48.844;10.098;2022-10-17T08:40:56;97454.38;;;26.85;42.52
48216;BME280;34005;48.844;10.098;2022-10-17T08:43:33;97449.59;;;27.43;40.61
48216;BME280;34005;48.844;10.098;2022-10-17T08:46:04;97449.00;;;27.92;39.92
48216;BME280;34005;48.844;10.098;2022-10-17T08:48:36;97456.56;;;28.40;38.56
48216;BME280;34005;48.844;10.098;2022-10-17T08:51:14;97457.25;;;28.66;38.17
48216;BME280;34005;48.844;10.098;2022-10-17T08:53:44;97458.31;;;28.75;40.85
48216;BME280;34005;48.844;10.098;2022-10-17T08:56:19;97466.78;;;29.32;37.50
48216;BME280;34005;48.844;10.098;2022-10-17T08:59:04;97460.22;;;30.21;35.70
48216;BME280;34005;48.844;10.098;2022-10-17T09:01:34;97461.78;;;30.89;34.70
48216;BME280;34005;48.844;10.098;2022-10-17T09:04:19;97463.09;;;31.57;33.94
48216;BME280;34005;48.844;10.098;2022-10-17T09:06:56;97452.41;;;32.13;32.83
48216;BME280;34005;48.844;10.098;2022-10-17T09:09:33;97453.25;;;32.50;31.88
48216;BME280;34005;48.844;10.098;2022-10-17T09:12:13;97454.88;;;32.73;31.27
48216;BME280;34005;48.844;10.098;2022-10-17T09:15:07;97453.44;;;32.90;32.01
48216;BME280;34005;48.844;10.098;2022-10-17T09:17:44;97459.34;;;33.59;29.83
48216;BME280;34005;48.844;10.098;2022-10-17T09:20:20;97454.38;;;34.33;28.06
48216;BME280;34005;48.844;10.098;2022-10-17T09:22:54;97455.88;;;35.00;27.28
48216;BME280;34005;48.844;10.098;2022-10-17T09:25:23;97456.53;;;35.79;26.60
48216;BME280;34005;48.844;10.098;2022-10-17T09:27:58;97455.19;;;36.32;24.58
48216;BME280;34005;48.844;10.098;2022-10-17T09:30:34;97446.56;;;36.93;24.28
48216;BME280;34005;48.844;10.098;2022-10-17T09:33:13;97458.75;;;37.62;23.86
48216;BME280;34005;48.844;10.098;2022-10-17T09:36:02;97454.09;;;38.00;23.20
48216;BME280;34005;48.844;10.098;2022-10-17T09:38:37;97446.19;;;37.95;22.86
48216;BME280;34005;48.844;10.098;2022-10-17T09:41:09;97445.38;;;37.94;23.13
48216;BME280;34005;48.844;10.098;2022-10-17T09:44:13;97450.84;;;38.19;22.28
48216;BME280;34005;48.844;10.098;2022-10-17T09:46:42;97442.41;;;38.48;21.93
48216;BME280;34005;48.844;10.098;2022-10-17T09:49:23;97439.78;;;38.92;21.69
48216;BME280;34005;48.844;10.098;2022-10-17T09:51:54;97435.75;;;38.74;21.68
48216;BME280;34005;48.844;10.098;2022-10-17T09:54:23;97444.16;;;38.04;22.29
48216;BME280;34005;48.844;10.098;2022-10-17T09:57:00;97441.97;;;37.85;22.47
48216;BME280;34005;48.844;10.098;2022-10-17T09:59:34;97444.66;;;38.59;23.18
48216;BME280;34005;48.844;10.098;2022-10-17T10:02:15;97446.63;;;39.90;21.02
48216;BME280;34005;48.844;10.098;2022-10-17T10:04:54;97447.34;;;40.93;19.65
48216;BME280;34005;48.844;10.098;2022-10-17T10:07:34;97442.97;;;41.74;19.72
48216;BME280;34005;48.844;10.098;2022-10-17T10:10:05;97449.28;;;42.28;18.30
48216;BME280;34005;48.844;10.098;2022-10-17T10:12:35;97451.19;;;42.50;18.08
48216;BME280;34005;48.844;10.098;2022-10-17T10:15:33;97445.66;;;42.47;17.83
48216;BME280;34005;48.844;10.098;2022-10-17T10:18:01;97441.84;;;42.85;17.21
48216;BME280;34005;48.844;10.098;2022-10-17T10:20:33;97453.13;;;43.14;18.11
48216;BME280;34005;48.844;10.098;2022-10-17T10:23:10;97450.47;;;43.21;16.93
48216;BME280;34005;48.844;10.098;2022-10-17T10:25:51;97438.06;;;43.34;17.38
48216;BME280;34005;48.844;10.098;2022-10-17T10:28:21;97436.44;;;43.67;16.35
48216;BME280;34005;48.844;10.098;2022-10-17T10:30:51;97446.44;;;43.97;15.82
48216;BME280;34005;48.844;10.098;2022-10-17T10:33:22;97439.00;;;44.60;15.94
48216;BME280;34005;48.844;10.098;2022-10-17T10:35:54;97431.34;;;45.16;14.71
48216;BME280;34005;48.844;10.098;2022-10-17T10:38:23;97432.94;;;45.28;15.07
48216;BME280;34005;48.844;10.098;2022-10-17T10:40:52;97433.72;;;45.35;15.13
48216;BME280;34005;48.844;10.098;2022-10-17T10:43:32;97436.13;;;45.40;14.80
48216;BME280;34005;48.844;10.098;2022-10-17T10:46:04;97430.53;;;45.15;14.71
48216;BME280;34005;48.844;10.098;2022-10-17T10:48:33;97432.63;;;44.45;15.38
48216;BME280;34005;48.844;10.098;2022-10-17T10:51:04;97428.38;;;43.96;15.63
48216;BME280;34005;48.844;10.098;2022-10-17T10:53:41;97426.47;;;43.55;16.63
48216;BME280;34005;48.844;10.098;2022-10-17T10:56:15;97430.75;;;43.12;16.41
48216;BME280;34005;48.844;10.098;2022-10-17T10:58:50;97421.84;;;42.85;16.67
48216;BME280;34005;48.844;10.098;2022-10-17T11:01:27;97426.94;;;42.26;17.38
48216;BME280;34005;48.844;10.098;2022-10-17T11:04:04;97414.19;;;41.61;17.89
48216;BME280;34005;48.844;10.098;2022-10-17T11:06:36;97422.19;;;41.50;18.12
48216;BME280;34005;48.844;10.098;2022-10-17T11:09:15;97420.75;;;41.56;18.92
48216;BME280;34005;48.844;10.098;2022-10-17T11:11:47;97423.81;;;42.54;18.85
48216;BME280;34005;48.844;10.098;2022-10-17T11:14:18;97416.84;;;43.31;18.09
48216;BME280;34005;48.844;10.098;2022-10-17T11:16:55;97415.38;;;43.41;17.09
48216;BME280;34005;48.844;10.098;2022-10-17T11:19:27;97409.00;;;43.30;17.13
48216;BME280;34005;48.844;10.098;2022-10-17T11:22:06;97410.09;;;43.66;17.23
48216;BME280;34005;48.844;10.098;2022-10-17T11:24:39;97416.97;;;44.56;16.85
48216;BME280;34005;48.844;10.098;2022-10-17T11:27:09;97421.88;;;45.17;16.65
48216;BME280;34005;48.844;10.098;2022-10-17T11:29:39;97419.53;;;45.19;15.57
48216;BME280;34005;48.844;10.098;2022-10-17T11:32:12;97420.31;;;45.19;15.24
48216;BME280;34005;48.844;10.098;2022-10-17T11:34:44;97423.53;;;45.61;14.83
48216;BME280;34005;48.844;10.098;2022-10-17T11:37:16;97435.31;;;46.19;14.67
48216;BME280;34005;48.844;10.098;2022-10-17T11:39:48;97441.41;;;46.84;13.24
48216;BME280;34005;48.844;10.098;2022-10-17T11:42:21;97437.84;;;47.54;13.32
48216;BME280;34005;48.844;10.098;2022-10-17T11:44:54;97437.56;;;48.31;12.22
48216;BME280;34005;48.844;10.098;2022-10-17T11:47:42;97439.13;;;49.01;12.26
48216;BME280;34005;48.844;10.098;2022-10-17T11:50:20;97439.53;;;49.54;11.49
48216;BME280;34005;48.844;10.098;2022-10-17T11:53:11;97429.88;;;50.09;11.11
48216;BME280;34005;48.844;10.098;2022-10-17T11:55:40;97427.41;;;50.35;11.24
48216;BME280;34005;48.844;10.098;2022-10-17T11:58:22;97427.09;;;50.09;10.64
48216;BME280;34005;48.844;10.098;2022-10-17T12:00:58;97426.03;;;49.56;11.26
48216;BME280;34005;48.844;10.098;2022-10-17T12:03:38;97414.78;;;49.39;12.00
48216;BME280;34005;48.844;10.098;2022-10-17T12:06:16;97416.72;;;48.88;11.61
48216;BME280;34005;48.844;10.098;2022-10-17T12:08:49;97409.56;;;47.35;12.89
48216;BME280;34005;48.844;10.098;2022-10-17T12:11:33;97399.09;;;45.31;14.03
48216;BME280;34005;48.844;10.098;2022-10-17T12:14:34;97396.88;;;43.34;16.10
48216;BME280;34005;48.844;10.098;2022-10-17T12:17:03;97399.66;;;42.06;17.42
48216;BME280;34005;48.844;10.098;2022-10-17T12:19:34;97387.47;;;40.88;18.02
48216;BME280;34005;48.844;10.098;2022-10-17T12:22:18;97387.06;;;39.96;18.80
48216;BME280;34005;48.844;10.098;2022-10-17T12:24:54;97384.22;;;39.13;19.18
48216;BME280;34005;48.844;10.098;2022-10-17T12:27:37;97391.44;;;38.37;19.24
48216;BME280;34005;48.844;10.098;2022-10-17T12:30:21;97392.84;;;37.69;19.42
48216;BME280;34005;48.844;10.098;2022-10-17T12:33:02;97392.56;;;37.04;19.56
48216;BME280;34005;48.844;10.098;2022-10-17T12:35:35;97396.63;;;36.43;19.95
48216;BME280;34005;48.844;10.098;2022-10-17T12:38:23;97382.59;;;35.82;20.13
48216;BME280;34005;48.844;10.098;2022-10-17T12:41:00;97387.84;;;35.40;20.66
48216;BME280;34005;48.844;10.098;2022-10-17T12:43:49;97392.56;;;34.96;21.37
48216;BME280;34005;48.844;10.098;2022-10-17T12:46:54;97389.38;;;34.50;22.05
48216;BME280;34005;48.844;10.098;2022-10-17T12:49:40;97383.00;;;34.11;21.88
48216;BME280;34005;48.844;10.098;2022-10-17T12:52:19;97389.88;;;33.77;22.36
48216;BME280;34005;48.844;10.098;2022-10-17T12:54:51;97385.09;;;33.43;22.44
48216;BME280;34005;48.844;10.098;2022-10-17T12:57:41;97390.31;;;33.08;22.39
48216;BME280;34005;48.844;10.098;2022-10-17T13:00:17;97397.25;;;32.78;23.24
48216;BME280;34005;48.844;10.098;2022-10-17T13:02:46;97401.22;;;32.58;23.58
48216;BME280;34005;48.844;10.098;2022-10-17T13:05:18;97393.56;;;32.37;23.49
48216;BME280;34005;48.844;10.098;2022-10-17T13:07:51;97385.41;;;32.15;23.68
48216;BME280;34005;48.844;10.098;2022-10-17T13:10:21;97389.00;;;31.96;24.33
48216;BME280;34005;48.844;10.098;2022-10-17T13:12:50;97398.50;;;31.80;26.54
48216;BME280;34005;48.844;10.098;2022-10-17T13:15:20;97395.91;;;31.61;25.00
48216;BME280;34005;48.844;10.098;2022-10-17T13:17:55;97396.78;;;31.43;25.62
48216;BME280;34005;48.844;10.098;2022-10-17T13:20:25;97398.63;;;31.28;25.36
48216;BME280;34005;48.844;10.098;2022-10-17T13:22:58;97396.69;;;31.15;26.43
48216;BME280;34005;48.844;10.098;2022-10-17T13:25:27;97395.84;;;31.00;26.17
48216;BME280;34005;48.844;10.098;2022-10-17T13:28:10;97390.22;;;30.83;26.31
48216;BME280;34005;48.844;10.098;2022-10-17T13:30:38;97398.22;;;30.69;26.57
48216;BME280;34005;48.844;10.098;2022-10-17T13:33:26;97402.16;;;30.58;26.89
48216;BME280;34005;48.844;10.098;2022-10-17T13:35:54;97395.03;;;30.48;27.25
48216;BME280;34005;48.844;10.098;2022-10-17T13:38:29;97395.97;;;30.38;27.73
48216;BME280;34005;48.844;10.098;2022-10-17T13:41:02;97399.31;;;30.30;28.33
48216;BME280;34005;48.844;10.098;2022-10-17T13:43:51;97402.63;;;30.22;28.18
48216;BME280;34005;48.844;10.098;2022-10-17T13:46:25;97404.34;;;30.13;28.34
48216;BME280;34005;48.844;10.098;2022-10-17T13:49:10;97401.28;;;30.01;28.24
48216;BME280;34005;48.844;10.098;2022-10-17T13:51:42;97403.59;;;29.88;29.17
48216;BME280;34005;48.844;10.098;2022-10-17T13:54:34;97402.91;;;29.77;28.75
48216;BME280;34005;48.844;10.098;2022-10-17T13:57:03;97409.72;;;29.65;29.76
48216;BME280;34005;48.844;10.098;2022-10-17T13:59:36;97403.66;;;29.54;29.40
48216;BME280;34005;48.844;10.098;2022-10-17T14:02:05;97406.75;;;29.42;29.89
48216;BME280;34005;48.844;10.098;2022-10-17T14:04:37;97405.25;;;29.31;30.55
48216;BME280;34005;48.844;10.098;2022-10-17T14:07:29;97409.66;;;29.16;30.49
48216;BME280;34005;48.844;10.098;2022-10-17T14:10:23;97411.91;;;29.04;30.66
48216;BME280;34005;48.844;10.098;2022-10-17T14:12:52;97411.19;;;28.93;31.84
48216;BME280;34005;48.844;10.098;2022-10-17T14:15:23;97411.50;;;28.87;32.91
48216;BME280;34005;48.844;10.098;2022-10-17T14:17:54;97415.28;;;28.81;31.04
48216;BME280;34005;48.844;10.098;2022-10-17T14:20:23;97407.81;;;28.72;30.91
48216;BME280;34005;48.844;10.098;2022-10-17T14:23:28;97408.19;;;28.61;31.40
48216;BME280;34005;48.844;10.098;2022-10-17T14:26:06;97425.13;;;28.51;31.95
48216;BME280;34005;48.844;10.098;2022-10-17T14:28:34;97432.16;;;28.42;31.89
48216;BME280;34005;48.844;10.098;2022-10-17T14:31:12;97422.56;;;28.30;31.79
48216;BME280;34005;48.844;10.098;2022-10-17T14:33:43;97419.91;;;28.20;32.04
48216;BME280;34005;48.844;10.098;2022-10-17T14:36:17;97421.03;;;28.09;32.30
48216;BME280;34005;48.844;10.098;2022-10-17T14:38:46;97423.75;;;27.99;33.26
48216;BME280;34005;48.844;10.098;2022-10-17T17:02:38;97514.88;;;22.58;50.94
48216;BME280;34005;48.844;10.098;2022-10-17T17:05:16;97505.56;;;22.44;51.30
48216;BME280;34005;48.844;10.098;2022-10-17T17:10:51;97513.19;;;22.17;52.02
48216;BME280;34005;48.844;10.098;2022-10-17T17:14:03;97511.03;;;22.02;52.41
48216;BME280;34005;48.844;10.098;2022-10-17T17:17:02;97521.91;;;21.89;53.04
48216;BME280;34005;48.844;10.098;2022-10-17T17:23:40;97532.97;;;21.62;53.54
48216;BME280;34005;48.844;10.098;2022-10-17T17:26:38;97536.56;;;21.56;53.55
48216;BME280;34005;48.844;10.098;2022-10-17T17:29:27;97531.56;;;21.48;53.88
48216;BME280;34005;48.844;10.098;2022-10-17T17:35:01;97544.28;;;21.27;54.46
48216;BME280;34005;48.844;10.098;2022-10-17T17:44:37;97556.59;;;21.10;55.16
48216;BME280;34005;48.844;10.098;2022-10-17T17:47:51;97551.16;;;21.05;54.83
48216;BME280;34005;48.844;10.098;2022-10-17T17:50:43;97557.22;;;20.93;55.39
48216;BME280;34005;48.844;10.098;2022-10-17T17:53:25;97555.34;;;20.82;55.43
48216;BME280;34005;48.844;10.098;2022-10-17T17:56:02;97561.41;;;20.71;56.14
48216;BME280;34005;48.844;10.098;2022-10-17T17:58:31;97554.34;;;20.65;56.11
48216;BME280;34005;48.844;10.098;2022-10-17T18:01:08;97557.25;;;20.56;56.54
48216;BME280;34005;48.844;10.098;2022-10-17T18:03:59;97558.94;;;20.51;56.64
48216;BME280;34005;48.844;10.098;2022-10-17T18:06:34;97557.41;;;20.43;56.88
48216;BME280;34005;48.844;10.098;2022-10-17T18:09:11;97556.69;;;20.36;56.75
48216;BME280;34005;48.844;10.098;2022-10-17T18:11:53;97558.34;;;20.30;57.22
48216;BME280;34005;48.844;10.098;2022-10-17T18:14:44;97551.06;;;20.26;57.16
48216;BME280;34005;48.844;10.098;2022-10-17T18:17:37;97562.53;;;20.20;57.63
48216;BME280;34005;48.844;10.098;2022-10-17T18:20:09;97570.75;;;20.11;57.62
48216;BME280;34005;48.844;10.098;2022-10-17T18:22:46;97566.38;;;20.05;58.29
48216;BME280;34005;48.844;10.098;2022-10-17T18:25:54;97570.91;;;19.98;58.14
48216;BME280;34005;48.844;10.098;2022-10-17T18:28:32;97577.09;;;19.92;58.57
48216;BME280;34005;48.844;10.098;2022-10-17T18:31:38;97575.06;;;19.87;58.75
48216;BME280;34005;48.844;10.098;2022-10-17T18:34:29;97577.13;;;19.85;58.76
48216;BME280;34005;48.844;10.098;2022-10-17T18:37:09;97584.09;;;19.80;58.98
48216;BME280;34005;48.844;10.098;2022-10-17T18:39:47;97583.13;;;19.74;58.77
48216;BME280;34005;48.844;10.098;2022-10-17T19:03:09;97593.84;;;19.22;60.95
48216;BME280;34005;48.844;10.098;2022-10-17T19:11:19;97595.97;;;19.07;61.64
48216;BME280;34005;48.844;10.098;2022-10-17T19:17:49;97600.44;;;19.00;61.50
48216;BME280;34005;48.844;10.098;2022-10-17T20:15:07;97634.75;;;18.55;63.72
48216;BME280;34005;48.844;10.098;2022-10-17T20:22:03;97629.09;;;18.31;63.97